Time;durP1;ratioP1;P1;durP2;ratioP2;P2;SDS_P1;SDS_P2;PMS_P1;PMS_P2;Temp;Humidity;BMP_temperature;BMP_pressure;BME280_temperature;BME280_humidity;BME280_pressure;Samples;Min_cycle;Max_cycle;Signal;HPM_P1;HPM_P2
2023/12/28 00:00:46;;;;;;;5.97;1.40;;;10.30;99.90;;;10.28;100.00;100627.56;5219863;28;20726;-48
2023/12/28 00:03:18;;;;;;;3.22;0.73;;;10.30;99.90;;;10.31;100.00;100630.28;5218573;28;20056;-48
2023/12/28 00:05:50;;;;;;;1.67;1.13;;;10.30;99.90;;;10.33;100.00;100633.81;5210168;28;20048;-48
2023/12/28 00:08:24;;;;;;;2.40;1.13;;;10.30;99.90;;;10.30;100.00;100639.84;5209699;28;20434;-47
2023/12/28 00:10:57;;;;;;;1.77;1.33;;;10.30;99.90;;;10.30;100.00;100638.91;5226087;28;20528;-47
2023/12/28 00:13:29;;;;;;;1.23;0.95;;;10.30;99.90;;;10.28;100.00;100638.88;5215068;28;20048;-48
2023/12/28 00:16:01;;;;;;;1.25;1.08;;;10.30;99.90;;;10.27;100.00;100646.66;5213495;28;20512;-46
2023/12/28 00:18:34;;;;;;;2.05;1.05;;;10.30;99.90;;;10.26;100.00;100656.19;5210206;28;20048;-46
2023/12/28 00:21:06;;;;;;;2.47;1.02;;;10.30;99.90;;;10.28;100.00;100653.63;5223522;28;20045;-47
2023/12/28 00:23:40;;;;;;;1.77;0.85;;;10.30;99.90;;;10.27;100.00;100650.13;5217990;28;20052;-47
2023/12/28 00:26:12;;;;;;;2.40;0.93;;;10.30;99.90;;;10.33;100.00;100650.34;5216661;28;20053;-47
2023/12/28 00:28:47;;;;;;;3.15;0.98;;;10.30;99.90;;;10.34;100.00;100653.81;5217182;28;20148;-47
2023/12/28 00:31:19;;;;;;;1.95;0.95;;;10.40;99.90;;;10.35;100.00;100658.19;5226698;28;20534;-48
2023/12/28 00:33:51;;;;;;;1.10;0.80;;;10.40;99.90;;;10.36;100.00;100669.50;5225163;28;20416;-47
2023/12/28 00:36:24;;;;;;;1.90;1.00;;;10.40;99.90;;;10.35;100.00;100660.81;5217810;28;20063;-47
2023/12/28 00:38:58;;;;;;;1.90;0.77;;;10.40;99.90;;;10.36;100.00;100661.69;5211559;28;20056;-47
2023/12/28 00:41:31;;;;;;;1.48;1.00;;;10.40;99.90;;;10.35;100.00;100659.94;5217056;28;20048;-48
2023/12/28 00:44:05;;;;;;;2.55;1.17;;;10.30;99.90;;;10.35;100.00;100676.44;5216629;28;20097;-48
2023/12/28 00:46:37;;;;;;;2.20;1.00;;;10.40;99.90;;;10.33;100.00;100678.13;5220503;28;20045;-48
2023/12/28 00:49:11;;;;;;;2.72;0.90;;;10.30;99.90;;;10.31;100.00;100679.81;5219284;28;20527;-47
2023/12/28 00:51:44;;;;;;;1.65;0.70;;;10.40;99.90;;;10.32;100.00;100671.16;5225954;28;20400;-47
2023/12/28 00:54:17;;;;;;;1.05;0.95;;;10.30;99.90;;;10.31;100.00;100679.81;5213255;28;20148;-47
2023/12/28 00:56:50;;;;;;;1.33;0.98;;;10.30;99.90;;;10.32;100.00;100677.22;5215773;28;20053;-48
2023/12/28 00:59:22;;;;;;;2.35;0.80;;;10.30;99.90;;;10.30;100.00;100684.13;5211365;28;20049;-47
2023/12/28 01:01:54;;;;;;;1.35;0.93;;;10.30;99.90;;;10.29;100.00;100686.66;5228604;28;20144;-49
2023/12/28 01:04:27;;;;;;;3.13;1.02;;;10.30;99.90;;;10.29;100.00;100686.66;5206603;28;20045;-49
2023/12/28 01:07:01;;;;;;;2.55;0.95;;;10.30;99.90;;;10.28;100.00;100687.50;5217233;28;20069;-47
2023/12/28 01:09:35;;;;;;;3.08;1.00;;;10.30;99.90;;;10.28;100.00;100696.19;5212242;28;20049;-47
2023/12/28 01:12:09;;;;;;;1.30;0.70;;;10.30;99.90;;;10.28;100.00;100695.31;5212437;28;20091;-47
2023/12/28 01:14:42;;;;;;;1.45;0.82;;;10.30;99.90;;;10.27;100.00;100702.25;5214323;28;20053;-47
2023/12/28 01:17:14;;;;;;;0.98;0.73;;;10.30;99.90;;;10.28;100.00;100716.16;5220222;28;20049;-48
2023/12/28 01:19:47;;;;;;;0.90;0.82;;;10.30;99.90;;;10.27;100.00;100717.88;5217460;28;20073;-47
2023/12/28 01:22:19;;;;;;;2.13;0.77;;;10.30;99.90;;;10.27;100.00;100715.28;5220082;28;20041;-47
2023/12/28 01:24:53;;;;;;;1.70;0.90;;;10.30;99.90;;;10.27;100.00;100725.69;5219000;28;20484;-47
2023/12/28 01:27:25;;;;;;;0.60;0.60;;;10.30;99.90;;;10.25;100.00;100729.97;5216791;28;20505;-48
2023/12/28 01:29:58;;;;;;;1.75;0.82;;;10.30;99.90;;;10.25;100.00;100727.38;5211898;28;20041;-48
2023/12/28 01:32:30;;;;;;;1.02;0.73;;;10.30;99.90;;;10.25;100.00;100743.00;5209327;28;20041;-47
2023/12/28 01:35:03;;;;;;;2.33;0.95;;;10.30;99.90;;;10.25;100.00;100743.00;5206861;28;20053;-47
2023/12/28 01:37:36;;;;;;;0.70;0.63;;;10.30;99.90;;;10.25;100.00;100736.91;5214419;28;20049;-47
2023/12/28 01:40:11;;;;;;;1.02;0.63;;;10.20;99.90;;;10.25;100.00;100745.59;5210080;28;20045;-47
2023/12/28 01:42:43;;;;;;;;;;;10.20;99.90;;;10.24;100.00;100740.34;5212515;28;20045;-47
2023/12/28 01:45:15;;;;;;;0.73;0.73;;;10.20;99.90;;;10.26;100.00;100734.34;5222808;28;19921;-49
2023/12/28 01:47:49;;;;;;;1.58;0.73;;;10.20;99.90;;;10.25;100.00;100735.19;5206933;28;20128;-47
2023/12/28 01:50:22;;;;;;;1.30;0.82;;;10.20;99.90;;;10.29;100.00;100744.84;5219365;28;20072;-49
2023/12/28 01:52:56;;;;;;;1.02;0.43;;;10.30;99.90;;;10.26;100.00;100733.47;5219212;28;20404;-48
2023/12/28 01:55:32;;;;;;;1.05;0.90;;;10.20;99.90;;;10.25;100.00;100755.13;5217640;28;20041;-47
2023/12/28 01:58:05;;;;;;;0.85;0.43;;;10.20;99.90;;;10.24;100.00;100755.97;5217391;28;20048;-47
2023/12/28 02:00:38;;;;;;;1.48;0.77;;;10.20;99.90;;;10.26;100.00;100754.31;5219929;28;20045;-50
2023/12/28 02:03:11;;;;;;;1.08;0.52;;;10.20;99.90;;;10.27;100.00;100741.31;5224997;28;20062;-48
2023/12/28 02:05:45;;;;;;;0.70;0.65;;;10.20;99.90;;;10.25;100.00;100756.03;5220026;28;20118;-49
2023/12/28 02:08:17;;;;;;;1.65;0.73;;;10.20;99.90;;;10.28;100.00;100755.22;5219387;28;20492;-48
2023/12/28 02:10:52;;;;;;;0.98;0.80;;;10.20;99.90;;;10.26;100.00;100762.13;5209283;28;20476;-48
2023/12/28 02:13:25;;;;;;;0.60;0.52;;;10.20;99.90;;;10.28;100.00;100758.72;5222875;28;20106;-48
2023/12/28 02:16:04;;;;;;;0.50;0.50;;;10.30;99.90;;;10.29;100.00;100749.19;5217995;28;20154;-47
2023/12/28 02:18:43;;;;;;;0.60;0.60;;;10.30;99.90;;;10.27;100.00;100743.03;5208717;28;20145;-47
2023/12/28 02:21:17;;;;;;;1.15;0.82;;;10.30;99.90;;;10.27;100.00;100745.66;5211461;28;20156;-48
2023/12/28 02:23:49;;;;;;;1.05;0.68;;;10.30;99.90;;;10.27;100.00;100745.66;5208105;28;20049;-48
2023/12/28 02:26:23;;;;;;;0.70;0.65;;;10.30;99.90;;;10.28;100.00;100757.84;5214276;28;20080;-47
2023/12/28 02:28:56;;;;;;;1.35;0.90;;;10.30;99.90;;;10.27;100.00;100748.25;5218168;28;20060;-49
2023/12/28 02:31:39;;;;;;;1.33;0.75;;;10.30;99.90;;;10.24;100.00;100751.66;5226276;28;20041;-48
2023/12/28 02:34:20;;;;;;;1.27;0.93;;;10.30;99.90;;;10.24;100.00;100750.75;5211823;28;20041;-47
2023/12/28 02:36:53;;;;;;;0.85;0.70;;;10.20;99.90;;;10.23;100.00;100762.00;5211637;28;20053;-47
2023/12/28 02:39:27;;;;;;;0.73;0.50;;;10.20;99.90;;;10.22;100.00;100748.03;5215773;28;20139;-47
2023/12/28 02:42:01;;;;;;;1.58;0.90;;;10.20;99.90;;;10.20;100.00;100754.03;5212023;28;20053;-48
2023/12/28 02:44:34;;;;;;;1.17;0.80;;;10.20;99.90;;;10.19;100.00;100758.38;5203929;28;20064;-47
2023/12/28 02:47:06;;;;;;;2.30;0.75;;;10.20;99.90;;;10.17;100.00;100756.53;5216384;28;20052;-48
2023/12/28 02:49:38;;;;;;;1.35;0.90;;;10.20;99.90;;;10.15;100.00;100753.88;5216492;28;20055;-48
2023/12/28 02:52:11;;;;;;;1.00;0.60;;;10.20;99.90;;;10.16;100.00;100753.03;5219088;28;20053;-47
2023/12/28 02:54:43;;;;;;;0.68;0.55;;;10.20;99.90;;;10.17;100.00;100744.41;5211299;28;20069;-47
2023/12/28 02:57:18;;;;;;;0.90;0.80;;;10.10;99.90;;;10.16;100.00;100755.63;5208127;28;20065;-48
2023/12/28 02:59:50;;;;;;;1.40;0.95;;;10.20;99.90;;;10.13;100.00;100742.53;5222885;28;20044;-49
2023/12/28 03:02:22;;;;;;;1.17;0.82;;;10.20;99.90;;;10.14;100.00;100738.19;5218770;28;20132;-48
2023/12/28 03:04:55;;;;;;;1.20;0.77;;;10.10;99.90;;;10.12;100.00;100737.25;5214800;28;20047;-47
2023/12/28 03:07:27;;;;;;;1.90;0.80;;;10.10;99.90;;;10.12;100.00;100745.09;5222472;28;20041;-48
2023/12/28 03:10:00;;;;;;;3.42;0.73;;;10.10;99.90;;;10.06;100.00;100741.41;5213371;28;20041;-48
2023/12/28 03:12:34;;;;;;;0.95;0.75;;;10.10;99.90;;;10.01;100.00;100739.47;5220138;28;20041;-48
2023/12/28 03:15:07;;;;;;;1.75;0.90;;;10.00;99.90;;;9.98;100.00;100750.69;5215090;28;20049;-48
2023/12/28 03:17:40;;;;;;;0.52;0.47;;;10.00;99.90;;;9.94;100.00;100746.19;5215360;28;20049;-48
2023/12/28 03:20:12;;;;;;;0.65;0.60;;;10.00;99.90;;;9.91;100.00;100746.09;5213174;28;20053;-47
2023/12/28 03:22:45;;;;;;;0.82;0.70;;;10.00;99.90;;;9.89;100.00;100741.63;5216874;28;20055;-47
2023/12/28 03:25:18;;;;;;;1.98;1.00;;;9.90;99.90;;;9.85;100.00;100738.03;5218534;28;20053;-47
2023/12/28 03:27:52;;;;;;;0.93;0.85;;;9.90;99.90;;;9.83;100.00;100739.69;5220639;28;20072;-47
2023/12/28 03:30:24;;;;;;;1.13;0.75;;;9.90;99.90;;;9.79;100.00;100740.41;5217068;28;20080;-47
2023/12/28 03:32:57;;;;;;;1.25;0.93;;;9.80;99.90;;;9.72;100.00;100733.22;5211694;28;20407;-47
2023/12/28 03:35:29;;;;;;;2.83;0.93;;;9.80;99.90;;;9.69;100.00;100739.19;5211778;28;20041;-48
2023/12/28 03:38:02;;;;;;;1.00;0.90;;;9.80;99.90;;;9.68;100.00;100736.53;5214533;28;20526;-46
2023/12/28 03:40:34;;;;;;;1.95;1.00;;;9.70;99.90;;;9.65;100.00;100737.31;5215848;28;20049;-47
2023/12/28 03:43:09;;;;;;;2.22;1.00;;;9.70;99.90;;;9.64;100.00;100739.81;5225473;28;20436;-47
2023/12/28 03:45:41;;;;;;;2.53;1.00;;;9.70;99.90;;;9.58;100.00;100739.59;5208039;28;20562;-48
2023/12/28 03:48:13;;;;;;;1.00;0.73;;;9.70;99.90;;;9.55;100.00;100739.50;5212563;28;20049;-48
2023/12/28 03:50:46;;;;;;;1.48;0.80;;;9.60;99.90;;;9.55;100.00;100739.50;5209240;28;20427;-47
2023/12/28 03:53:18;;;;;;;0.82;0.70;;;9.60;99.90;;;9.53;100.00;100739.44;5216435;28;20041;-47
2023/12/28 03:55:50;;;;;;;1.63;0.80;;;9.60;99.90;;;9.54;100.00;100745.53;5218227;28;20056;-47
2023/12/28 03:58:24;;;;;;;1.13;0.93;;;9.60;99.90;;;9.54;100.00;100742.94;5217755;28;20037;-47
2023/12/28 04:00:57;;;;;;;0.90;0.82;;;9.60;99.90;;;9.51;100.00;100739.34;5213437;28;20165;-48
2023/12/28 04:03:29;;;;;;;0.75;0.68;;;9.60;99.90;;;9.48;100.00;100733.16;5214391;28;21042;-47
2023/12/28 04:06:01;;;;;;;0.90;0.52;;;9.60;99.90;;;9.49;100.00;100737.53;5228090;28;20396;-48
2023/12/28 04:08:34;;;;;;;1.58;0.88;;;9.60;99.90;;;9.48;100.00;100739.25;5207881;28;20525;-47
2023/12/28 04:11:06;;;;;;;1.70;0.80;;;9.50;99.90;;;9.48;100.00;100727.97;5221014;28;20044;-48
2023/12/28 04:13:42;;;;;;;1.77;1.02;;;9.50;99.90;;;9.47;100.00;100727.06;5222997;28;20118;-48
2023/12/28 04:16:14;;;;;;;1.13;0.73;;;9.50;99.90;;;9.46;100.00;100722.72;5217774;28;20516;-47
2023/12/28 04:18:47;;;;;;;2.28;0.90;;;9.50;99.90;;;9.46;100.00;100722.72;5211364;28;20037;-47
2023/12/28 04:21:19;;;;;;;2.35;0.82;;;9.50;99.90;;;9.48;100.00;100730.56;5206277;28;20419;-47
2023/12/28 04:23:52;;;;;;;0.60;0.60;;;9.50;99.90;;;9.47;100.00;100724.47;5218420;28;20134;-47
2023/12/28 04:26:24;;;;;;;1.20;1.00;;;9.50;99.90;;;9.49;100.00;100725.41;5210332;28;20541;-47
2023/12/28 04:28:58;;;;;;;0.68;0.57;;;9.60;99.90;;;9.49;100.00;100721.94;5220312;28;20106;-46
2023/12/28 04:31:31;;;;;;;1.58;0.93;;;9.50;99.90;;;9.52;100.00;100725.53;5219364;28;20059;-47
2023/12/28 04:34:03;;;;;;;1.35;1.10;;;9.50;99.90;;;9.51;100.00;100723.75;5219912;28;20056;-48
2023/12/28 04:36:42;;;;;;;1.20;1.10;;;9.60;99.90;;;9.54;100.00;100725.59;5214142;28;20045;-47
2023/12/28 04:39:14;;;;;;;1.65;0.88;;;9.60;99.90;;;9.54;100.00;100717.78;5228487;28;20077;-47
2023/12/28 04:41:47;;;;;;;2.75;0.90;;;9.60;99.90;;;9.54;100.00;100711.69;5218357;28;20152;-48
2023/12/28 04:44:21;;;;;;;1.67;0.90;;;9.60;99.90;;;9.56;100.00;100730.84;5211340;28;20599;-47
2023/12/28 04:46:53;;;;;;;1.88;1.02;;;9.60;99.90;;;9.55;100.00;100724.75;5217799;28;20049;-47
2023/12/28 04:49:25;;;;;;;1.75;1.00;;;9.60;99.90;;;9.55;100.00;100724.75;5208991;28;20045;-47
2023/12/28 04:52:00;;;;;;;1.33;1.10;;;9.60;99.90;;;9.59;100.00;100723.19;5223905;28;20051;-49
2023/12/28 04:54:33;;;;;;;1.13;0.63;;;9.60;99.90;;;9.58;100.00;100718.78;5217223;28;20053;-48
2023/12/28 04:57:05;;;;;;;2.63;1.00;;;9.60;99.90;;;9.58;100.00;100718.78;5220295;28;20060;-47
2023/12/28 04:59:41;;;;;;;1.35;0.73;;;9.60;99.90;;;9.58;100.00;100722.25;5215629;28;20066;-48
2023/12/28 05:02:13;;;;;;;1.60;0.90;;;9.60;99.90;;;9.59;100.00;100726.66;5220768;28;20042;-48
2023/12/28 05:04:46;;;;;;;1.02;0.70;;;9.60;99.90;;;9.61;100.00;100711.09;5232176;28;20717;-47
2023/12/28 05:07:18;;;;;;;5.82;1.40;;;9.60;99.90;;;9.61;100.00;100718.91;5217815;28;20107;-47
2023/12/28 05:09:51;;;;;;;2.90;1.08;;;9.60;99.90;;;9.61;100.00;100721.50;5219274;28;20409;-48
2023/12/28 05:12:24;;;;;;;1.08;1.02;;;9.60;99.90;;;9.63;100.00;100728.53;5210584;28;20045;-48
2023/12/28 05:14:58;;;;;;;2.65;1.13;;;9.70;99.90;;;9.63;100.00;100725.03;5220302;28;20057;-47
2023/12/28 05:17:31;;;;;;;3.00;1.13;;;9.70;99.90;;;9.65;100.00;100733.78;5215385;28;20508;-48
2023/12/28 05:20:03;;;;;;;1.58;1.10;;;9.70;99.90;;;9.64;100.00;100742.44;5216806;28;20048;-47
2023/12/28 05:22:36;;;;;;;2.15;1.13;;;9.70;99.90;;;9.66;100.00;100748.59;5232584;28;20587;-47
2023/12/28 05:25:08;;;;;;;1.90;1.15;;;9.70;99.90;;;9.68;100.00;100752.13;5214038;28;20057;-47
2023/12/28 05:27:42;;;;;;;1.80;1.05;;;9.70;99.90;;;9.67;100.00;100748.66;5213293;28;20122;-47
2023/12/28 05:30:16;;;;;;;1.63;1.08;;;9.70;99.90;;;9.68;100.00;100749.53;5216585;28;20107;-48
2023/12/28 05:32:49;;;;;;;1.80;1.10;;;9.70;99.90;;;9.68;100.00;100752.13;5223136;28;20055;-47
2023/12/28 05:35:21;;;;;;;1.55;0.70;;;9.70;99.90;;;9.67;100.00;100755.56;5220432;28;20441;-48
2023/12/28 05:37:53;;;;;;;3.28;1.20;;;9.70;99.90;;;9.65;100.00;100752.00;5218888;28;20566;-48
2023/12/28 05:40:26;;;;;;;1.23;0.88;;;9.70;99.90;;;9.64;100.00;100752.84;5220344;28;20135;-48
2023/12/28 05:42:58;;;;;;;1.10;1.00;;;9.70;99.90;;;9.63;100.00;100764.09;5221363;28;20047;-48
2023/12/28 05:45:32;;;;;;;4.10;1.23;;;9.70;99.90;;;9.63;100.00;100764.09;5212360;28;20054;-47
2023/12/28 05:48:05;;;;;;;1.10;0.93;;;9.70;99.90;;;9.62;100.00;100767.53;5217166;28;20049;-47
2023/12/28 05:50:37;;;;;;;1.77;1.02;;;9.70;99.90;;;9.59;100.00;100768.31;5214671;28;20063;-47
2023/12/28 05:53:13;;;;;;;2.10;1.13;;;9.70;99.90;;;9.56;100.00;100772.50;5219958;28;20044;-49
2023/12/28 05:55:46;;;;;;;1.80;1.00;;;9.60;99.90;;;9.57;100.00;100779.47;5218454;28;20106;-47
2023/12/28 05:58:18;;;;;;;2.88;1.10;;;9.60;99.90;;;9.55;100.00;100778.53;5218681;28;20500;-48
2023/12/28 06:00:52;;;;;;;1.35;1.10;;;9.60;99.90;;;9.53;100.00;100788.88;5220799;28;20056;-47
2023/12/28 06:03:27;;;;;;;4.53;1.40;;;9.60;99.90;;;9.51;100.00;100786.19;5209173;28;20041;-47
2023/12/28 06:06:00;;;;;;;2.90;0.98;;;9.60;99.90;;;9.49;100.00;100795.66;5218996;28;20061;-48
2023/12/28 06:08:32;;;;;;;1.92;1.23;;;9.50;99.90;;;9.49;100.00;100795.66;5217632;28;20060;-47
2023/12/28 06:11:05;;;;;;;1.30;0.77;;;9.50;99.90;;;9.45;100.00;100806.81;5221559;28;20068;-47
2023/12/28 06:13:37;;;;;;;2.17;1.02;;;9.50;99.90;;;9.46;100.00;100797.28;5211539;28;20049;-47
2023/12/28 06:16:12;;;;;;;2.70;1.17;;;9.50;99.90;;;9.45;100.00;100796.41;5220109;28;20067;-48
2023/12/28 06:18:44;;;;;;;2.05;1.02;;;9.50;99.90;;;9.46;100.00;100792.97;5213538;28;20053;-48
2023/12/28 06:21:16;;;;;;;3.22;1.17;;;9.50;99.90;;;9.46;100.00;100792.97;5215334;28;20427;-47
2023/12/28 06:23:49;;;;;;;1.52;1.02;;;9.50;99.90;;;9.46;100.00;100795.56;5220867;28;20058;-47
2023/12/28 06:26:21;;;;;;;6.25;1.10;;;9.50;99.90;;;9.46;100.00;100803.38;5220029;28;20076;-49
2023/12/28 06:28:53;;;;;;;1.58;1.10;;;9.50;99.90;;;9.46;100.00;100803.38;5222722;28;20412;-47
2023/12/28 06:31:27;;;;;;;1.40;0.95;;;9.50;99.90;;;9.47;100.00;100805.13;5221606;28;20061;-47
2023/12/28 06:34:00;;;;;;;1.63;1.10;;;9.50;99.90;;;9.49;100.00;100821.69;5224461;28;20168;-47
2023/12/28 06:36:32;;;;;;;1.05;0.80;;;9.50;99.90;;;9.49;100.00;100818.22;5220470;28;20187;-47
2023/12/28 06:39:05;;;;;;;1.10;1.00;;;9.50;99.90;;;9.47;100.00;100820.75;5221421;28;20049;-47
2023/12/28 06:41:37;;;;;;;1.73;1.00;;;9.50;99.90;;;9.46;100.00;100818.09;5218777;28;20069;-47
2023/12/28 06:44:14;;;;;;;2.08;1.05;;;9.50;99.90;;;9.44;100.00;100812.81;5224063;28;20502;-47
2023/12/28 06:46:48;;;;;;;1.42;1.13;;;9.50;99.90;;;9.45;100.00;100812.00;5215693;28;20061;-47
2023/12/28 06:49:21;;;;;;;1.40;1.10;;;9.50;99.90;;;9.46;100.00;100802.50;5219221;28;20457;-48
2023/12/28 06:51:53;;;;;;;2.28;0.95;;;9.50;99.90;;;9.45;100.00;100806.81;5235421;28;20059;-49
2023/12/28 06:54:25;;;;;;;0.63;0.63;;;9.50;99.90;;;9.42;100.00;100804.06;5221011;28;20045;-48
2023/12/28 06:56:58;;;;;;;1.73;0.93;;;9.50;99.90;;;9.42;100.00;100809.28;5221660;28;20053;-47
2023/12/28 06:59:30;;;;;;;1.65;1.00;;;9.50;99.90;;;9.41;100.00;100804.91;5217374;28;20056;-47
2023/12/28 07:02:04;;;;;;;1.30;1.02;;;9.50;99.90;;;9.42;100.00;100805.78;5227344;28;20052;-48
2023/12/28 07:04:38;;;;;;;1.10;1.00;;;9.50;99.90;;;9.41;100.00;100804.00;5217200;28;20052;-48
2023/12/28 07:07:10;;;;;;;2.20;1.02;;;9.50;99.90;;;9.41;100.00;100810.09;5221791;28;20056;-47
2023/12/28 07:09:43;;;;;;;1.15;0.95;;;9.50;99.90;;;9.42;100.00;100811.88;5226816;28;20045;-47
2023/12/28 07:12:15;;;;;;;1.95;0.88;;;9.50;99.90;;;9.42;100.00;100811.88;5217296;28;20053;-48
2023/12/28 07:14:47;;;;;;;1.70;0.80;;;9.50;99.90;;;9.43;100.00;100817.97;5229049;28;20048;-47
2023/12/28 07:17:21;;;;;;;3.05;1.20;;;9.50;99.90;;;9.42;100.00;100826.59;5218605;28;20788;-48
2023/12/28 07:19:54;;;;;;;1.00;0.82;;;9.50;99.90;;;9.42;100.00;100830.09;5216285;28;20420;-48
2023/12/28 07:22:26;;;;;;;3.88;0.90;;;9.50;99.90;;;9.44;100.00;100831.03;5214490;28;20052;-48
2023/12/28 07:24:58;;;;;;;2.33;1.00;;;9.50;99.90;;;9.44;100.00;100835.34;5221538;28;20524;-48
2023/12/28 07:27:31;;;;;;;2.58;0.85;;;9.50;99.90;;;9.43;100.00;100836.19;5214899;28;20045;-48
2023/12/28 07:30:05;;;;;;;1.48;0.98;;;9.40;99.90;;;9.45;100.00;100831.91;5222523;28;20585;-48
2023/12/28 07:32:39;;;;;;;1.67;0.93;;;9.50;99.90;;;9.45;100.00;100837.09;5216847;28;20140;-46
2023/12/28 07:35:11;;;;;;;1.50;1.05;;;9.50;99.90;;;9.44;100.00;100835.34;5223206;28;20059;-47
2023/12/28 07:37:44;;;;;;;1.48;1.15;;;9.50;99.90;;;9.42;100.00;100834.41;5221755;28;20048;-48
2023/12/28 07:40:17;;;;;;;4.07;1.13;;;9.50;99.90;;;9.38;100.00;100833.38;5219719;28;20052;-47
2023/12/28 07:42:49;;;;;;;1.38;0.73;;;9.50;99.90;;;9.38;100.00;100841.19;5216278;28;20068;-47
2023/12/28 07:45:23;;;;;;;2.17;1.17;;;9.40;99.90;;;9.36;100.00;100845.44;5222095;28;20044;-48
2023/12/28 07:47:56;;;;;;;1.52;1.08;;;9.40;99.90;;;9.35;100.00;100846.28;5219298;28;20056;-48
2023/12/28 07:50:29;;;;;;;4.10;1.27;;;9.40;99.90;;;9.34;100.00;100847.09;5219142;28;20045;-48
2023/12/28 07:53:01;;;;;;;2.25;1.02;;;9.40;99.90;;;9.32;100.00;100850.44;5220435;28;20044;-48
2023/12/28 07:55:34;;;;;;;1.88;1.35;;;9.40;99.90;;;9.28;100.00;100845.97;5214315;28;20060;-48
2023/12/28 07:58:06;;;;;;;2.38;1.35;;;9.30;99.90;;;9.22;100.00;100839.69;5219549;28;20157;-48
2023/12/28 08:00:38;;;;;;;1.67;1.08;;;9.30;99.90;;;9.19;100.00;100843.88;5211213;28;20049;-47
2023/12/28 08:03:15;;;;;;;3.33;1.10;;;9.30;99.90;;;9.16;100.00;100848.94;5222988;28;20041;-47
2023/12/28 08:05:47;;;;;;;2.33;1.02;;;9.20;99.90;;;9.14;100.00;100855.81;5217365;28;20140;-48
2023/12/28 08:08:20;;;;;;;3.10;1.25;;;9.20;99.90;;;9.14;100.00;100861.00;5216965;28;20052;-47
2023/12/28 08:10:52;;;;;;;5.40;1.27;;;9.20;99.90;;;9.12;100.00;100862.63;5210451;28;20049;-47
2023/12/28 08:13:24;;;;;;;2.83;1.23;;;9.20;99.90;;;9.11;100.00;100868.66;5218975;28;20063;-47
2023/12/28 08:15:57;;;;;;;2.55;1.35;;;9.20;99.90;;;9.10;100.00;100869.50;5213865;28;20060;-47
2023/12/28 08:18:31;;;;;;;2.45;1.27;;;9.10;99.90;;;9.10;100.00;100877.31;5216085;28;20419;-47
2023/12/28 08:21:03;;;;;;;2.10;1.38;;;9.10;99.90;;;9.09;100.00;100878.13;5219394;28;20073;-48
2023/12/28 08:23:35;;;;;;;6.78;1.25;;;9.10;99.90;;;9.08;100.00;100882.44;5221728;28;20045;-48
2023/12/28 08:26:08;;;;;;;4.72;1.17;;;9.10;99.90;;;9.10;100.00;100880.78;5213020;28;20056;-48
2023/12/28 08:28:40;;;;;;;2.35;1.00;;;9.10;99.90;;;9.14;100.00;100885.31;5215914;28;20743;-47
2023/12/28 08:31:14;;;;;;;1.73;0.95;;;9.20;99.90;;;9.20;100.00;100889.88;5211178;28;20121;-47
2023/12/28 08:33:48;;;;;;;4.88;1.17;;;9.20;99.90;;;9.40;100.00;100901.13;5208510;28;20053;-48
2023/12/28 08:36:21;;;;;;;1.00;0.88;;;9.30;99.90;;;9.50;100.00;100891.13;5218771;28;20049;-48
2023/12/28 08:38:53;;;;;;;1.73;0.82;;;9.40;99.90;;;9.62;100.00;100898.53;5212603;28;20520;-49
2023/12/28 08:41:26;;;;;;;2.92;0.93;;;9.50;99.90;;;9.68;100.00;100901.38;5217028;28;20052;-48
2023/12/28 08:43:59;;;;;;;1.35;0.73;;;9.60;99.90;;;9.76;100.00;100896.47;5211201;28;20037;-48
2023/12/28 08:46:31;;;;;;;3.25;0.95;;;9.70;99.90;;;9.82;100.00;100904.53;5223477;28;20049;-48
2023/12/28 08:49:05;;;;;;;1.60;0.80;;;9.80;99.90;;;9.94;100.00;100897.22;5214478;28;20044;-48
2023/12/28 08:51:38;;;;;;;1.42;0.98;;;9.90;99.90;;;10.03;100.00;100897.56;5209193;28;20072;-47
2023/12/28 08:54:10;;;;;;;1.15;1.05;;;10.00;99.90;;;10.17;100.00;100905.00;5217200;28;20037;-48
2023/12/28 08:56:43;;;;;;;1.42;0.75;;;10.00;99.90;;;10.28;100.00;100904.63;5212644;28;20558;-47
2023/12/28 08:59:16;;;;;;;4.43;1.13;;;10.10;99.90;;;10.39;100.00;100907.66;5213149;28;20049;-47
2023/12/28 09:01:48;;;;;;;1.33;0.80;;;10.30;99.90;;;10.52;100.00;100908.97;5214147;28;20061;-48
2023/12/28 09:04:22;;;;;;;1.00;0.90;;;10.40;99.90;;;10.66;100.00;100912.09;5215264;28;20059;-48
2023/12/28 09:06:54;;;;;;;0.65;0.65;;;10.50;99.90;;;10.84;100.00;100899.72;5211057;28;20558;-46
2023/12/28 09:09:27;;;;;;;2.92;0.90;;;10.70;99.90;;;11.02;100.00;100902.97;5215197;28;20381;-46
2023/12/28 09:11:59;;;;;;;1.17;0.70;;;10.90;99.90;;;11.21;100.00;100906.19;5229684;28;20424;-46
2023/12/28 09:14:31;;;;;;;3.72;0.80;;;11.10;99.90;;;11.41;100.00;100907.78;5210014;28;20578;-49
2023/12/28 09:17:04;;;;;;;2.45;0.85;;;11.30;99.90;;;11.58;100.00;100897.84;5215406;28;20045;-47
2023/12/28 09:19:38;;;;;;;1.38;0.73;;;11.50;99.90;;;11.69;100.00;100905.22;5214494;28;20151;-48
2023/12/28 09:22:11;;;;;;;2.60;1.25;;;11.60;99.90;;;11.72;100.00;100914.84;5216959;28;20049;-47
2023/12/28 09:24:43;;;;;;;1.35;0.65;;;11.60;99.90;;;11.64;100.00;100918.94;5205178;28;20042;-48
2023/12/28 09:27:16;;;;;;;3.28;0.82;;;11.60;99.90;;;11.61;100.00;100916.25;5210967;28;20124;-48
2023/12/28 09:29:48;;;;;;;1.55;0.73;;;11.50;99.90;;;11.54;100.00;100919.47;5205468;28;20053;-48
2023/12/28 09:32:22;;;;;;;1.65;0.80;;;11.50;99.90;;;11.51;100.00;100924.59;5219414;28;20487;-47
2023/12/28 09:34:55;;;;;;;1.05;0.95;;;11.50;99.90;;;11.43;100.00;100924.34;5218726;28;20073;-47
2023/12/28 09:37:28;;;;;;;2.88;0.68;;;11.40;99.90;;;11.45;100.00;100937.44;5216055;28;20049;-48
2023/12/28 09:40:00;;;;;;;2.03;1.25;;;11.40;99.90;;;11.35;100.00;100934.53;5218129;28;20068;-47
2023/12/28 09:42:41;;;;;;;4.03;1.05;;;11.30;99.90;;;11.40;100.00;100930.34;5216114;28;20051;-48
2023/12/28 09:45:14;;;;;;;3.30;0.80;;;11.30;99.90;;;11.42;100.00;100933.03;5214642;28;20050;-48
2023/12/28 09:47:50;;;;;;;1.42;0.70;;;11.30;99.90;;;11.41;100.00;100944.31;5210086;28;20052;-47
2023/12/28 09:50:26;;;;;;;2.55;0.73;;;11.30;99.90;;;11.42;100.00;100930.41;5202371;28;20045;-48
2023/12/28 09:52:58;;;;;;;3.58;1.23;;;11.30;99.90;;;11.46;100.00;100929.66;5225772;28;20048;-47
2023/12/28 09:55:31;;;;;;;2.67;0.93;;;11.30;99.90;;;11.54;100.00;100923.00;5215236;28;20042;-47
2023/12/28 09:58:06;;;;;;;2.97;0.90;;;11.40;99.90;;;11.63;100.00;100925.00;5206120;28;20049;-46
2023/12/28 10:00:39;;;;;;;2.95;0.70;;;11.50;99.90;;;11.71;100.00;100923.53;5216167;28;20511;-48
2023/12/28 10:03:13;;;;;;;0.95;0.70;;;11.50;99.90;;;11.84;100.00;100925.72;5215923;28;20041;-48
2023/12/28 10:05:48;;;;;;;3.22;0.90;;;11.60;99.90;;;11.99;100.00;100933.16;5217345;28;20037;-48
2023/12/28 10:08:20;;;;;;;3.22;0.82;;;11.80;99.90;;;12.15;100.00;100924.97;5216750;28;20594;-47
2023/12/28 10:10:54;;;;;;;1.08;0.75;;;11.90;99.90;;;12.33;100.00;100926.34;5217031;28;20123;-46
2023/12/28 10:13:26;;;;;;;3.17;0.85;;;12.00;99.90;;;12.53;100.00;100927.81;5215424;28;20045;-48
2023/12/28 10:16:00;;;;;;;4.20;1.20;;;12.30;99.90;;;12.63;100.00;100914.16;5215110;28;20064;-47
2023/12/28 10:18:32;;;;;;;2.97;0.77;;;12.40;99.90;;;12.65;100.00;100924.66;5209521;28;20512;-48
2023/12/28 10:21:07;;;;;;;2.00;0.85;;;12.50;99.90;;;12.79;100.00;100910.25;5209414;28;20049;-47
2023/12/28 10:23:40;;;;;;;4.68;1.10;;;12.50;99.90;;;12.84;100.00;100905.13;5207648;28;20516;-48
2023/12/28 10:26:12;;;;;;;3.40;0.82;;;12.60;99.90;;;12.90;100.00;100895.72;5211341;28;20056;-49
2023/12/28 10:28:45;;;;;;;3.35;0.70;;;12.70;99.90;;;13.04;100.00;100898.72;5215658;28;20060;-48
2023/12/28 10:31:17;;;;;;;5.25;1.30;;;12.80;99.90;;;13.21;100.00;100901.78;5210253;28;20043;-47
2023/12/28 10:33:50;;;;;;;5.32;1.00;;;13.00;99.90;;;13.34;100.00;100903.00;5209093;28;20044;-47
2023/12/28 10:36:24;;;;;;;2.22;0.73;;;13.00;99.90;;;13.44;100.00;100903.28;5223472;28;20091;-48